Time;durP1;ratioP1;P1;durP2;ratioP2;P2;SDS_P1;SDS_P2;PMS_P1;PMS_P2;Temp;Humidity;BMP_temperature;BMP_pressure;BME280_temperature;BME280_humidity;BME280_pressure;Samples;Min_cycle;Max_cycle;Signal;HPM_P1;HPM_P2
2022/12/27 00:00:43;;;;;;;430.98;216.20;;;;;;;;;;5053205;28;20487;-82
2022/12/27 00:03:29;;;;;;;467.05;226.48;;;;;;;;;;5060700;28;20367;-81
2022/12/27 00:06:19;;;;;;;431.75;212.93;;;;;;;;;;5054315;28;20044;-81
2022/12/27 00:09:05;;;;;;;460.52;215.45;;;;;;;;;;5053904;28;20037;-81
2022/12/27 00:11:50;;;;;;;441.65;216.75;;;;;;;;;;5059477;28;20049;-81
2022/12/27 00:14:35;;;;;;;463.52;220.18;;;;;;;;;;5053315;28;20486;-81
2022/12/27 00:17:21;;;;;;;487.13;217.63;;;;;;;;;;5054382;28;20041;-81
2022/12/27 00:20:07;;;;;;;434.58;196.00;;;;;;;;;;5054097;28;20045;-81
2022/12/27 00:22:52;;;;;;;446.40;203.23;;;;;;;;;;5053571;28;20045;-80
2022/12/27 00:25:38;;;;;;;458.35;203.60;;;;;;;;;;5053701;28;20364;-82
2022/12/27 00:28:23;;;;;;;415.30;183.95;;;;;;;;;;5054261;28;20402;-79
2022/12/27 00:31:09;;;;;;;400.38;185.50;;;;;;;;;;5056515;28;20045;-79
2022/12/27 00:33:57;;;;;;;400.27;174.18;;;;;;;;;;5056631;28;20047;-81
2022/12/27 00:36:42;;;;;;;418.77;168.65;;;;;;;;;;5056471;28;20044;-79
2022/12/27 00:39:28;;;;;;;447.95;179.90;;;;;;;;;;5062268;28;20037;-80
2022/12/27 00:42:13;;;;;;;369.40;175.82;;;;;;;;;;5056190;28;20049;-79
2022/12/27 00:44:59;;;;;;;424.63;179.70;;;;;;;;;;5056125;28;20041;-80
2022/12/27 00:47:44;;;;;;;458.55;183.77;;;;;;;;;;5061354;28;20048;-80
2022/12/27 00:50:30;;;;;;;424.63;181.32;;;;;;;;;;5059287;28;20041;-84
2022/12/27 00:53:15;;;;;;;451.80;204.93;;;;;;;;;;5057401;28;20045;-80
2022/12/27 00:56:06;;;;;;;454.05;212.68;;;;;;;;;;5062490;28;20045;-80
2022/12/27 00:58:56;;;;;;;468.95;249.70;;;;;;;;;;5055722;28;20041;-79
2022/12/27 01:01:41;;;;;;;459.70;196.20;;;;;;;;;;5055871;28;20049;-78
2022/12/27 01:04:30;;;;;;;462.63;206.05;;;;;;;;;;5048849;28;20041;-80
2022/12/27 01:07:15;;;;;;;440.30;195.63;;;;;;;;;;5052635;28;20036;-81
2022/12/27 01:10:01;;;;;;;447.75;205.23;;;;;;;;;;5056194;28;20049;-79
2022/12/27 01:12:47;;;;;;;451.35;204.25;;;;;;;;;;5055688;28;20387;-80
2022/12/27 01:15:33;;;;;;;437.92;194.68;;;;;;;;;;5059724;28;20486;-82
2022/12/27 01:18:18;;;;;;;435.55;201.25;;;;;;;;;;5057412;28;20041;-83
2022/12/27 01:21:09;;;;;;;453.08;203.45;;;;;;;;;;5062821;28;20037;-81
2022/12/27 01:23:54;;;;;;;476.95;207.88;;;;;;;;;;5059847;28;20482;-80
2022/12/27 01:26:40;;;;;;;454.70;193.60;;;;;;;;;;5055707;28;20049;-80
2022/12/27 01:29:26;;;;;;;418.88;195.10;;;;;;;;;;5058725;28;20041;-82
2022/12/27 01:32:12;;;;;;;397.30;192.98;;;;;;;;;;5064752;28;20049;-80
2022/12/27 01:34:57;;;;;;;377.77;185.18;;;;;;;;;;5079745;28;20045;-81
2022/12/27 01:37:43;;;;;;;374.85;181.18;;;;;;;;;;5074004;28;20037;-82
2022/12/27 01:40:29;;;;;;;435.48;186.95;;;;;;;;;;5062785;28;20041;-82
2022/12/27 01:43:17;;;;;;;367.23;169.65;;;;;;;;;;5061909;28;20518;-80
2022/12/27 01:46:03;;;;;;;401.40;183.75;;;;;;;;;;5055253;28;20036;-80
2022/12/27 01:48:49;;;;;;;421.88;195.93;;;;;;;;;;5055001;28;20041;-79
2022/12/27 01:51:34;;;;;;;411.17;197.07;;;;;;;;;;5054822;28;20032;-80
2022/12/27 01:54:19;;;;;;;407.50;200.48;;;;;;;;;;5055311;28;20048;-81
2022/12/27 01:57:08;;;;;;;361.58;186.63;;;;;;;;;;5055489;28;20044;-80
2022/12/27 01:59:56;;;;;;;402.98;189.38;;;;;;;;;;5054553;28;20040;-80
2022/12/27 02:02:43;;;;;;;438.02;211.18;;;;;;;;;;5062271;28;20063;-81
2022/12/27 02:05:29;;;;;;;404.95;201.70;;;;;;;;;;5047516;28;20048;-80
2022/12/27 02:08:33;;;;;;;402.13;202.32;;;;;;;;;;5055189;28;20491;-81
2022/12/27 02:11:49;;;;;;;414.70;207.18;;;;;;;;;;5054796;28;20034;-81
2022/12/27 02:14:34;;;;;;;412.85;200.45;;;;;;;;;;5060081;28;20049;-79
2022/12/27 02:17:29;;;;;;;386.80;200.15;;;;;;;;;;5061202;28;20049;-83
2022/12/27 02:20:22;;;;;;;380.48;193.38;;;;;;;;;;5053413;28;20053;-83
2022/12/27 02:26:37;;;;;;;379.17;196.68;;;;;;;;;;5054318;28;20396;-84
2022/12/27 02:29:31;;;;;;;372.30;193.23;;;;;;;;;;5053611;28;20410;-85
2022/12/27 02:32:38;;;;;;;353.10;184.27;;;;;;;;;;5053688;28;20045;-84
2022/12/27 02:35:30;;;;;;;325.23;175.60;;;;;;;;;;5057692;28;20041;-83
2022/12/27 02:38:22;;;;;;;335.27;183.75;;;;;;;;;;5061356;28;20045;-84
2022/12/27 02:54:53;;;;;;;309.52;168.88;;;;;;;;;;5066438;28;20049;-83
2022/12/27 02:57:53;;;;;;;314.20;170.00;;;;;;;;;;5036240;28;20049;-84
2022/12/27 03:04:13;;;;;;;386.70;190.40;;;;;;;;;;5059465;28;20041;-85
2022/12/27 03:07:14;;;;;;;345.00;173.55;;;;;;;;;;5053001;28;20056;-83
2022/12/27 03:16:54;;;;;;;271.77;145.75;;;;;;;;;;5059379;28;20041;-84
2022/12/27 03:26:06;;;;;;;259.25;146.02;;;;;;;;;;5053883;28;20045;-84
2022/12/27 03:35:20;;;;;;;269.67;141.85;;;;;;;;;;5053451;28;20045;-84
2022/12/27 03:38:08;;;;;;;264.20;144.25;;;;;;;;;;5053802;28;20037;-84
2022/12/27 03:44:23;;;;;;;273.45;148.70;;;;;;;;;;5059194;28;20045;-84
2022/12/27 03:47:21;;;;;;;265.15;142.48;;;;;;;;;;5053635;28;20045;-83
2022/12/27 03:50:26;;;;;;;265.48;142.45;;;;;;;;;;5077901;28;20025;-85
2022/12/27 03:53:20;;;;;;;281.13;146.10;;;;;;;;;;5070700;28;20052;-85
2022/12/27 03:56:06;;;;;;;268.05;142.60;;;;;;;;;;5053868;28;20032;-85
2022/12/27 03:58:53;;;;;;;278.13;148.13;;;;;;;;;;5053355;28;20113;-85
2022/12/27 04:01:40;;;;;;;275.42;150.80;;;;;;;;;;5044882;28;20033;-86
2022/12/27 04:04:25;;;;;;;292.67;155.15;;;;;;;;;;5056323;28;20037;-86
2022/12/27 04:07:14;;;;;;;290.38;148.40;;;;;;;;;;5049001;28;20056;-87
2022/12/27 04:34:43;;;;;;;195.73;106.35;;;;;;;;;;5062609;28;20394;-85
2022/12/27 04:37:28;;;;;;;191.60;109.25;;;;;;;;;;5049122;28;20037;-84
2022/12/27 04:55:36;;;;;;;177.32;95.75;;;;;;;;;;5063988;28;20049;-83
2022/12/27 04:58:22;;;;;;;187.35;99.93;;;;;;;;;;5062145;28;20045;-85
2022/12/27 05:04:11;;;;;;;165.65;89.45;;;;;;;;;;5061279;28;20037;-85
2022/12/27 05:06:57;;;;;;;167.55;89.57;;;;;;;;;;5064713;28;20053;-85
2022/12/27 05:15:50;;;;;;;187.15;102.18;;;;;;;;;;5065546;28;20045;-84
2022/12/27 05:18:36;;;;;;;177.60;94.63;;;;;;;;;;5060681;28;20592;-85
2022/12/27 05:21:22;;;;;;;163.38;88.13;;;;;;;;;;5061060;28;20498;-84
2022/12/27 05:27:11;;;;;;;183.52;99.40;;;;;;;;;;5064904;28;20490;-84
2022/12/27 05:29:57;;;;;;;180.10;98.80;;;;;;;;;;5069664;28;20045;-84
2022/12/27 05:32:43;;;;;;;167.60;88.22;;;;;;;;;;5064665;28;20040;-84
2022/12/27 05:35:29;;;;;;;185.15;101.10;;;;;;;;;;5060521;28;20056;-84
2022/12/27 05:38:14;;;;;;;194.57;101.18;;;;;;;;;;5059625;28;20045;-85
2022/12/27 05:41:00;;;;;;;213.73;119.50;;;;;;;;;;5065071;28;20045;-84
2022/12/27 05:43:46;;;;;;;186.70;102.30;;;;;;;;;;5062080;28;20045;-85
2022/12/27 05:46:32;;;;;;;165.70;90.15;;;;;;;;;;5056666;28;20041;-84
2022/12/27 05:49:17;;;;;;;163.80;84.63;;;;;;;;;;5054484;28;20049;-84
2022/12/27 05:52:03;;;;;;;153.52;86.15;;;;;;;;;;5056319;28;20128;-83
2022/12/27 05:54:48;;;;;;;156.43;84.80;;;;;;;;;;5058796;28;20041;-83
2022/12/27 05:57:34;;;;;;;185.50;93.97;;;;;;;;;;5060312;28;20049;-82
2022/12/27 06:00:20;;;;;;;173.40;89.57;;;;;;;;;;5056010;28;20041;-84
2022/12/27 06:03:05;;;;;;;161.68;84.70;;;;;;;;;;5061627;28;20041;-83
2022/12/27 06:05:50;;;;;;;172.13;86.25;;;;;;;;;;5086123;28;20033;-83
2022/12/27 06:08:37;;;;;;;173.15;94.22;;;;;;;;;;5071654;28;20040;-84
2022/12/27 06:11:22;;;;;;;180.45;94.18;;;;;;;;;;5060033;28;20104;-83
2022/12/27 06:14:07;;;;;;;165.38;88.95;;;;;;;;;;5054921;28;20045;-83
2022/12/27 06:16:53;;;;;;;160.35;89.28;;;;;;;;;;5060255;28;20041;-83
2022/12/27 06:19:37;;;;;;;191.13;101.55;;;;;;;;;;5054307;28;20049;-84
2022/12/27 06:22:24;;;;;;;193.50;102.30;;;;;;;;;;5059887;28;20045;-84
2022/12/27 06:25:09;;;;;;;180.43;96.93;;;;;;;;;;5066370;28;20053;-85
2022/12/27 06:27:54;;;;;;;171.52;91.30;;;;;;;;;;5063231;28;20041;-85
2022/12/27 06:30:41;;;;;;;162.20;88.53;;;;;;;;;;5061808;28;20035;-84
2022/12/27 06:33:27;;;;;;;158.18;91.53;;;;;;;;;;5056160;28;20481;-85
2022/12/27 06:36:14;;;;;;;165.90;94.18;;;;;;;;;;5062663;28;20044;-86
2022/12/27 06:39:00;;;;;;;168.80;93.25;;;;;;;;;;5060381;28;20517;-86
2022/12/27 06:41:45;;;;;;;148.38;84.75;;;;;;;;;;5061892;28;20487;-86
2022/12/27 06:44:31;;;;;;;181.63;98.45;;;;;;;;;;5066934;28;20405;-85
2022/12/27 06:47:16;;;;;;;191.82;107.30;;;;;;;;;;5061557;28;20045;-85
2022/12/27 06:50:04;;;;;;;210.73;116.53;;;;;;;;;;5048510;28;20044;-84
2022/12/27 06:52:49;;;;;;;213.43;115.43;;;;;;;;;;5062189;28;20049;-85
2022/12/27 06:55:35;;;;;;;204.60;110.63;;;;;;;;;;5054620;28;20037;-85
2022/12/27 06:58:20;;;;;;;218.93;127.28;;;;;;;;;;5056669;28;20482;-85
2022/12/27 07:01:17;;;;;;;211.07;119.63;;;;;;;;;;5056250;28;20033;-85
2022/12/27 07:04:02;;;;;;;226.20;132.18;;;;;;;;;;5055700;28;20041;-87
2022/12/27 07:06:47;;;;;;;213.02;123.93;;;;;;;;;;5053943;28;20398;-86
2022/12/27 07:09:33;;;;;;;193.80;114.78;;;;;;;;;;5064266;28;20049;-85
2022/12/27 07:12:18;;;;;;;259.65;145.05;;;;;;;;;;5057345;28;20044;-85
2022/12/27 07:15:05;;;;;;;193.02;103.32;;;;;;;;;;5062162;28;20053;-84
2022/12/27 07:17:51;;;;;;;166.77;92.97;;;;;;;;;;5058471;28;20044;-85
2022/12/27 07:20:36;;;;;;;176.90;92.35;;;;;;;;;;5055628;28;20052;-85
2022/12/27 07:23:22;;;;;;;179.27;101.38;;;;;;;;;;5055691;28;20436;-84
2022/12/27 07:26:10;;;;;;;203.80;117.38;;;;;;;;;;5060861;28;20066;-84
2022/12/27 07:28:59;;;;;;;224.57;121.53;;;;;;;;;;5055969;28;20045;-86
2022/12/27 07:31:45;;;;;;;307.48;168.38;;;;;;;;;;5062134;28;20041;-86
2022/12/27 07:34:30;;;;;;;297.48;168.95;;;;;;;;;;5056499;28;20040;-86
2022/12/27 07:37:16;;;;;;;259.77;145.68;;;;;;;;;;5059666;28;20057;-86
2022/12/27 07:40:02;;;;;;;268.98;139.48;;;;;;;;;;5051955;28;20045;-86
2022/12/27 07:42:47;;;;;;;260.13;138.05;;;;;;;;;;5059888;28;20051;-86
2022/12/27 07:45:33;;;;;;;261.58;141.45;;;;;;;;;;5063597;28;20052;-86
2022/12/27 07:48:21;;;;;;;251.27;136.73;;;;;;;;;;5064222;28;20040;-86
2022/12/27 07:51:06;;;;;;;234.88;132.77;;;;;;;;;;5065558;28;20033;-86
2022/12/27 07:53:52;;;;;;;220.02;118.50;;;;;;;;;;5068277;28;20049;-86
2022/12/27 07:56:37;;;;;;;233.48;133.32;;;;;;;;;;5062914;28;20041;-85
2022/12/27 07:59:23;;;;;;;226.60;123.15;;;;;;;;;;5062725;28;20044;-86
2022/12/27 08:02:09;;;;;;;237.18;135.55;;;;;;;;;;5061117;28;20486;-84
2022/12/27 08:04:54;;;;;;;265.45;153.73;;;;;;;;;;5059550;28;20044;-85
2022/12/27 08:08:01;;;;;;;;;;;;;;;;;;;;;
2022/12/27 08:11:01;;;;;;;;;;;;;;;;;;;;;
2022/12/27 08:13:52;;;;;;;267.85;154.98;;;;;;;;;;5063136;28;20041;-86
2022/12/27 08:16:40;;;;;;;229.57;128.68;;;;;;;;;;5056304;28;20490;-86
2022/12/27 08:19:25;;;;;;;212.35;123.13;;;;;;;;;;5063878;28;20029;-85
2022/12/27 08:22:12;;;;;;;235.63;132.68;;;;;;;;;;5079647;28;20025;-86
2022/12/27 08:24:57;;;;;;;275.25;145.90;;;;;;;;;;5072784;28;20037;-85
2022/12/27 08:27:42;;;;;;;295.60;166.30;;;;;;;;;;5059437;28;20048;-86
2022/12/27 08:30:28;;;;;;;308.98;168.68;;;;;;;;;;5057766;28;20048;-85
2022/12/27 08:33:16;;;;;;;315.48;178.18;;;;;;;;;;5058591;28;20049;-85
2022/12/27 08:36:14;;;;;;;308.50;177.27;;;;;;;;;;5066701;28;20044;-86
2022/12/27 08:39:01;;;;;;;322.92;181.80;;;;;;;;;;5051747;28;20052;-86
2022/12/27 08:41:50;;;;;;;266.08;144.10;;;;;;;;;;5059304;28;20045;-82
2022/12/27 08:44:35;;;;;;;204.77;110.65;;;;;;;;;;5062196;28;20048;-80
2022/12/27 08:47:21;;;;;;;214.77;116.38;;;;;;;;;;5055975;28;20040;-80
2022/12/27 08:50:08;;;;;;;213.23;113.63;;;;;;;;;;5055017;28;20482;-81
2022/12/27 08:52:57;;;;;;;344.05;176.70;;;;;;;;;;5062827;28;20037;-80
2022/12/27 08:55:42;;;;;;;238.80;128.25;;;;;;;;;;5062817;28;20408;-80
2022/12/27 08:58:27;;;;;;;211.32;114.70;;;;;;;;;;5057247;28;20045;-80
2022/12/27 09:01:12;;;;;;;217.52;125.75;;;;;;;;;;5057038;28;20044;-81
2022/12/27 09:03:58;;;;;;;200.50;109.22;;;;;;;;;;5065091;28;20045;-84
2022/12/27 09:06:43;;;;;;;205.60;111.30;;;;;;;;;;5055357;28;20045;-84
2022/12/27 09:09:29;;;;;;;187.82;107.43;;;;;;;;;;5063230;28;20502;-80
2022/12/27 09:12:14;;;;;;;213.80;122.55;;;;;;;;;;5067919;28;20041;-83
2022/12/27 09:14:59;;;;;;;160.32;88.25;;;;;;;;;;5059258;28;20037;-79
2022/12/27 09:17:45;;;;;;;135.50;72.68;;;;;;;;;;5057970;28;20037;-84
2022/12/27 09:20:30;;;;;;;143.88;79.78;;;;;;;;;;5057853;28;20045;-85
2022/12/27 09:23:16;;;;;;;129.43;73.22;;;;;;;;;;5073683;28;20036;-85
2022/12/27 09:26:58;;;;;;;;;;;;;;;;;;;;;
2022/12/27 09:30:25;;;;;;;128.93;72.70;;;;;;;;;;5083108;28;20041;-85
2022/12/27 09:33:09;;;;;;;114.28;66.80;;;;;;;;;;4998325;28;20050;-85
2022/12/27 09:36:05;;;;;;;123.80;66.65;;;;;;;;;;5004416;28;20050;-82
2022/12/27 09:38:52;;;;;;;123.30;67.40;;;;;;;;;;5024770;28;20042;-83
2022/12/27 09:41:46;;;;;;;104.65;59.05;;;;;;;;;;5009849;28;20030;-81
2022/12/27 09:44:46;;;;;;;118.75;61.55;;;;;;;;;;5001755;28;20049;-83
2022/12/27 09:48:04;;;;;;;123.30;69.15;;;;;;;;;;5002588;28;20046;-84
2022/12/27 09:51:17;;;;;;;133.88;73.50;;;;;;;;;;4995929;28;20046;-84
2022/12/27 09:54:14;;;;;;;157.30;85.10;;;;;;;;;;5002702;28;20046;-85
2022/12/27 09:57:02;;;;;;;145.20;83.38;;;;;;;;;;4995745;28;20061;-84
2022/12/27 09:59:50;;;;;;;142.82;80.88;;;;;;;;;;4995509;28;20038;-84
2022/12/27 10:02:35;;;;;;;151.27;90.03;;;;;;;;;;5002077;28;20042;-83
2022/12/27 10:05:25;;;;;;;157.35;90.85;;;;;;;;;;5002046;28;20042;-83
2022/12/27 10:08:51;;;;;;;167.05;94.93;;;;;;;;;;4995426;28;20053;-83
2022/12/27 10:12:05;;;;;;;163.50;92.32;;;;;;;;;;4980076;28;20042;-83
2022/12/27 10:15:12;;;;;;;186.23;101.07;;;;;;;;;;4995629;28;20054;-84
2022/12/27 10:18:22;;;;;;;170.45;97.45;;;;;;;;;;5002346;28;20058;-85
2022/12/27 10:21:22;;;;;;;175.95;96.57;;;;;;;;;;5001984;28;20042;-83
2022/12/27 10:24:11;;;;;;;170.48;98.30;;;;;;;;;;4995586;28;20046;-84
2022/12/27 10:26:56;;;;;;;169.10;97.78;;;;;;;;;;5001895;28;20050;-83
2022/12/27 10:29:42;;;;;;;174.30;96.65;;;;;;;;;;5002115;28;20039;-83
2022/12/27 10:32:28;;;;;;;164.90;96.07;;;;;;;;;;4994971;28;20046;-84
2022/12/27 10:35:16;;;;;;;156.80;94.82;;;;;;;;;;5001632;28;20046;-84
2022/12/27 10:38:00;;;;;;;160.70;89.40;;;;;;;;;;4995130;28;20466;-83
2022/12/27 10:41:14;;;;;;;167.73;94.13;;;;;;;;;;4994995;28;20046;-84
2022/12/27 10:44:00;;;;;;;168.17;93.13;;;;;;;;;;5001418;28;20458;-84
2022/12/27 10:46:51;;;;;;;177.00;99.03;;;;;;;;;;4995020;28;20050;-83
2022/12/27 10:49:38;;;;;;;183.63;103.22;;;;;;;;;;4994730;28;20046;-84
2022/12/27 10:52:24;;;;;;;195.85;112.50;;;;;;;;;;4995051;28;20042;-82
2022/12/27 10:55:39;;;;;;;202.00;117.95;;;;;;;;;;4994786;28;20042;-82
2022/12/27 10:58:46;;;;;;;287.98;161.15;;;;;;;;;;4991640;28;20058;-83
2022/12/27 11:01:33;;;;;;;315.75;174.38;;;;;;;;;;4994404;28;20038;-83
2022/12/27 11:04:23;;;;;;;289.20;164.48;;;;;;;;;;4994901;28;20034;-85
2022/12/27 11:07:16;;;;;;;278.02;161.77;;;;;;;;;;5006998;28;20046;-83
2022/12/27 11:10:25;;;;;;;290.27;169.65;;;;;;;;;;4994903;28;20046;-83
2022/12/27 11:13:17;;;;;;;262.50;155.63;;;;;;;;;;4994297;28;20050;-84
2022/12/27 11:16:06;;;;;;;267.52;155.18;;;;;;;;;;5001393;28;20042;-84
2022/12/27 11:18:54;;;;;;;262.10;156.88;;;;;;;;;;5000224;28;20038;-85
2022/12/27 11:21:39;;;;;;;253.20;151.50;;;;;;;;;;5000041;28;20042;-84
2022/12/27 11:24:25;;;;;;;254.98;155.20;;;;;;;;;;4994296;28;20038;-81
2022/12/27 11:27:21;;;;;;;267.52;156.65;;;;;;;;;;4994323;28;20042;-80
2022/12/27 11:30:20;;;;;;;262.23;155.23;;;;;;;;;;4993889;28;20381;-81
2022/12/27 11:33:50;;;;;;;257.70;156.43;;;;;;;;;;5000795;28;20046;-83
2022/12/27 11:36:39;;;;;;;347.00;215.68;;;;;;;;;;5013282;28;20046;-83
2022/12/27 11:39:43;;;;;;;336.13;218.95;;;;;;;;;;4993929;28;20046;-83
2022/12/27 11:42:38;;;;;;;284.08;172.68;;;;;;;;;;4994448;28;20046;-83
2022/12/27 11:45:31;;;;;;;287.75;175.50;;;;;;;;;;5006521;28;20038;-83
2022/12/27 11:48:28;;;;;;;282.73;168.65;;;;;;;;;;4994775;28;20046;-83
2022/12/27 11:51:20;;;;;;;276.17;165.68;;;;;;;;;;5000962;28;20057;-82
2022/12/27 11:54:20;;;;;;;242.88;148.60;;;;;;;;;;4994130;28;20042;-83
2022/12/27 11:57:09;;;;;;;254.10;146.77;;;;;;;;;;5000660;28;20042;-83
2022/12/27 12:00:05;;;;;;;256.95;154.05;;;;;;;;;;4994034;28;20470;-83
2022/12/27 12:03:07;;;;;;;266.95;156.60;;;;;;;;;;4993760;28;20043;-82
2022/12/27 12:06:08;;;;;;;268.67;165.57;;;;;;;;;;4993779;28;20042;-83
2022/12/27 12:09:31;;;;;;;269.95;169.63;;;;;;;;;;5000307;28;20046;-82
2022/12/27 12:12:38;;;;;;;281.17;170.43;;;;;;;;;;4995596;28;20034;-82
2022/12/27 12:15:40;;;;;;;274.98;169.90;;;;;;;;;;5005218;28;20051;-83
2022/12/27 12:19:03;;;;;;;281.58;178.65;;;;;;;;;;5011696;28;20042;-81
2022/12/27 12:22:12;;;;;;;314.25;191.88;;;;;;;;;;5008784;28;20046;-82
2022/12/27 12:25:04;;;;;;;279.30;180.65;;;;;;;;;;4998142;28;20038;-83
2022/12/27 12:28:11;;;;;;;293.33;186.15;;;;;;;;;;4997548;28;20054;-82
2022/12/27 12:31:06;;;;;;;321.92;201.65;;;;;;;;;;5001257;28;20050;-83
2022/12/27 12:34:03;;;;;;;339.38;215.10;;;;;;;;;;5003903;28;20042;-82
2022/12/27 12:37:04;;;;;;;334.52;211.85;;;;;;;;;;4997009;28;20042;-82
2022/12/27 12:40:08;;;;;;;339.10;216.98;;;;;;;;;;5002514;28;20042;-83
2022/12/27 12:43:27;;;;;;;310.70;186.77;;;;;;;;;;4997026;28;20034;-82
2022/12/27 12:46:35;;;;;;;337.63;207.20;;;;;;;;;;4997030;28;20355;-83
2022/12/27 12:49:37;;;;;;;295.48;187.02;;;;;;;;;;5003643;28;20046;-82
2022/12/27 12:52:39;;;;;;;331.65;206.38;;;;;;;;;;4997010;28;20042;-82
2022/12/27 12:56:01;;;;;;;367.75;226.70;;;;;;;;;;4996605;28;20042;-82
2022/12/27 12:59:33;;;;;;;328.13;205.48;;;;;;;;;;4996816;28;20043;-83
2022/12/27 13:02:52;;;;;;;339.23;221.68;;;;;;;;;;4997074;28;20044;-83
2022/12/27 13:05:42;;;;;;;351.92;227.85;;;;;;;;;;5015934;28;20051;-84
2022/12/27 13:08:39;;;;;;;333.33;211.75;;;;;;;;;;5003912;28;20377;-83
2022/12/27 13:12:04;;;;;;;333.90;224.02;;;;;;;;;;4997164;28;20042;-83
2022/12/27 13:15:05;;;;;;;331.73;217.65;;;;;;;;;;5003089;28;20034;-82
2022/12/27 13:17:53;;;;;;;355.15;241.88;;;;;;;;;;4996746;28;20042;-83
2022/12/27 13:20:59;;;;;;;325.33;220.93;;;;;;;;;;4996108;28;20042;-83
2022/12/27 13:24:00;;;;;;;332.67;224.50;;;;;;;;;;4996355;28;20038;-83
2022/12/27 13:27:05;;;;;;;341.88;224.07;;;;;;;;;;4996400;28;20042;-84
2022/12/27 13:30:15;;;;;;;355.60;233.45;;;;;;;;;;4977149;28;20039;-85
2022/12/27 13:33:44;;;;;;;344.52;229.65;;;;;;;;;;4983374;28;20382;-83
2022/12/27 13:36:50;;;;;;;381.88;259.50;;;;;;;;;;4976473;28;20035;-83
2022/12/27 13:40:08;;;;;;;375.23;255.68;;;;;;;;;;4983244;28;20043;-83
2022/12/27 13:43:14;;;;;;;376.55;257.77;;;;;;;;;;4953657;28;20386;-81
2022/12/27 13:46:12;;;;;;;389.75;260.33;;;;;;;;;;4984168;28;20039;-84
2022/12/27 13:49:15;;;;;;;387.60;257.95;;;;;;;;;;4996296;28;20050;-80
2022/12/27 13:52:21;;;;;;;390.23;263.20;;;;;;;;;;4995503;28;20386;-83
2022/12/27 13:55:23;;;;;;;391.60;266.08;;;;;;;;;;4984075;28;20477;-83
2022/12/27 13:58:43;;;;;;;446.23;293.85;;;;;;;;;;4984129;28;20046;-83
2022/12/27 14:01:28;;;;;;;432.08;285.42;;;;;;;;;;4999423;28;20046;-83
2022/12/27 14:04:29;;;;;;;367.27;247.45;;;;;;;;;;4995202;28;20050;-83
2022/12/27 14:07:31;;;;;;;326.25;215.05;;;;;;;;;;4995288;28;20042;-82
2022/12/27 14:10:20;;;;;;;356.80;229.23;;;;;;;;;;4995213;28;20047;-82
2022/12/27 14:13:10;;;;;;;346.30;227.80;;;;;;;;;;4999723;28;20400;-82
2022/12/27 14:16:15;;;;;;;346.70;219.50;;;;;;;;;;4981923;28;20062;-81
2022/12/27 14:19:11;;;;;;;334.40;218.23;;;;;;;;;;4984398;28;20102;-84
2022/12/27 14:22:04;;;;;;;339.63;220.90;;;;;;;;;;4990335;28;20042;-82
2022/12/27 14:25:08;;;;;;;386.73;257.38;;;;;;;;;;4984819;28;20039;-82
2022/12/27 14:28:31;;;;;;;348.17;232.32;;;;;;;;;;4983943;28;20050;-83
2022/12/27 14:31:40;;;;;;;371.38;234.80;;;;;;;;;;4997898;28;20050;-82
2022/12/27 14:34:44;;;;;;;434.52;286.38;;;;;;;;;;4995041;28;20046;-82
2022/12/27 14:37:49;;;;;;;419.52;268.17;;;;;;;;;;4975857;28;20047;-82
2022/12/27 14:40:55;;;;;;;;;;;;;;;;;;4976228;28;20050;-83
2022/12/27 14:43:59;;;;;;;225.35;129.63;;;;;;;;;;4994696;28;19914;-82
2022/12/27 14:47:04;;;;;;;181.18;109.03;;;;;;;;;;4997015;28;20053;-82
2022/12/27 14:50:29;;;;;;;210.93;123.88;;;;;;;;;;4994865;28;20042;-81
2022/12/27 14:53:28;;;;;;;201.25;119.05;;;;;;;;;;5000661;28;20042;-82
2022/12/27 14:56:23;;;;;;;197.70;118.95;;;;;;;;;;5003316;28;20042;-79
2022/12/27 14:59:27;;;;;;;199.77;114.88;;;;;;;;;;5018904;28;20042;-80
2022/12/27 15:02:12;;;;;;;197.38;117.85;;;;;;;;;;5008946;28;20046;-81
2022/12/27 15:05:17;;;;;;;195.98;118.20;;;;;;;;;;5002792;28;20362;-82
2022/12/27 15:08:20;;;;;;;228.30;142.25;;;;;;;;;;4982911;28;20038;-83
2022/12/27 15:11:24;;;;;;;226.10;139.68;;;;;;;;;;4975398;28;20490;-83
2022/12/27 15:14:14;;;;;;;272.35;166.07;;;;;;;;;;4989921;28;20042;-82
2022/12/27 15:17:08;;;;;;;268.45;173.63;;;;;;;;;;5000856;28;20462;-82
2022/12/27 15:20:19;;;;;;;257.73;156.52;;;;;;;;;;4989097;28;20034;-83
2022/12/27 15:23:27;;;;;;;241.05;140.98;;;;;;;;;;4969097;28;20043;-82
2022/12/27 15:26:15;;;;;;;276.90;172.52;;;;;;;;;;4979220;28;20035;-82
2022/12/27 15:29:07;;;;;;;291.38;185.32;;;;;;;;;;4984094;28;20046;-82
2022/12/27 15:32:05;;;;;;;357.00;223.35;;;;;;;;;;4980262;28;20058;-81
2022/12/27 15:34:57;;;;;;;361.15;226.88;;;;;;;;;;4975776;28;20043;-83
2022/12/27 15:37:46;;;;;;;358.73;227.32;;;;;;;;;;4988699;28;20038;-83
2022/12/27 15:40:31;;;;;;;332.63;208.02;;;;;;;;;;4978658;28;20054;-83
2022/12/27 15:43:46;;;;;;;303.20;179.93;;;;;;;;;;4981961;28;20354;-83
2022/12/27 15:47:14;;;;;;;324.80;200.40;;;;;;;;;;4993370;28;20042;-82
2022/12/27 15:50:19;;;;;;;349.00;210.30;;;;;;;;;;5000815;28;20042;-83
2022/12/27 15:53:15;;;;;;;331.33;214.18;;;;;;;;;;4994331;28;20046;-82
2022/12/27 15:56:20;;;;;;;293.98;179.98;;;;;;;;;;4994101;28;20470;-82
2022/12/27 15:59:30;;;;;;;134.20;71.68;;;;;;;;;;5001164;28;20042;-83
2022/12/27 16:02:16;;;;;;;72.50;42.95;;;;;;;;;;4978064;28;20039;-82
2022/12/27 16:05:48;;;;;;;77.53;44.22;;;;;;;;;;4978261;28;20039;-82
2022/12/27 16:08:38;;;;;;;161.63;89.72;;;;;;;;;;4978260;28;20051;-80
2022/12/27 16:11:55;;;;;;;555.28;396.45;;;;;;;;;;4984511;28;20471;-82
2022/12/27 16:14:45;;;;;;;238.80;141.15;;;;;;;;;;4986034;28;20521;-81
2022/12/27 16:17:34;;;;;;;207.10;123.40;;;;;;;;;;4997032;28;20122;-80
2022/12/27 16:20:22;;;;;;;175.73;104.07;;;;;;;;;;4997326;28;20042;-81
2022/12/27 16:23:10;;;;;;;280.65;151.95;;;;;;;;;;4990799;28;20056;-81
2022/12/27 16:26:09;;;;;;;286.33;135.23;;;;;;;;;;4989399;28;20047;-80
2022/12/27 16:29:15;;;;;;;110.82;62.58;;;;;;;;;;4984990;28;20047;-81
2022/12/27 16:32:21;;;;;;;97.68;55.70;;;;;;;;;;4984391;28;20042;-82
2022/12/27 16:35:13;;;;;;;90.43;53.75;;;;;;;;;;4984454;28;20035;-83
2022/12/27 16:38:02;;;;;;;78.25;47.80;;;;;;;;;;4988153;28;20042;-82
2022/12/27 16:40:54;;;;;;;75.57;44.65;;;;;;;;;;5003954;28;20389;-83
2022/12/27 16:43:50;;;;;;;70.63;42.22;;;;;;;;;;5003656;28;20042;-82
2022/12/27 16:46:51;;;;;;;99.97;54.30;;;;;;;;;;4992224;28;20466;-83
2022/12/27 16:49:44;;;;;;;88.13;48.83;;;;;;;;;;4995939;28;20034;-82
2022/12/27 16:52:32;;;;;;;345.27;117.88;;;;;;;;;;5016133;28;20050;-82
2022/12/27 16:56:02;;;;;;;86.45;44.40;;;;;;;;;;4987288;28;20083;-82
2022/12/27 16:58:47;;;;;;;39.67;23.55;;;;;;;;;;4992590;28;20038;-83
2022/12/27 17:01:33;;;;;;;36.22;21.00;;;;;;;;;;4985921;28;20064;-83
2022/12/27 17:05:00;;;;;;;36.38;20.75;;;;;;;;;;4983865;28;20035;-82
2022/12/27 17:07:51;;;;;;;29.65;18.77;;;;;;;;;;4990073;28;20042;-82
2022/12/27 17:10:54;;;;;;;28.05;16.90;;;;;;;;;;5002091;28;20485;-85
2022/12/27 17:13:53;;;;;;;27.80;16.92;;;;;;;;;;4996749;28;20038;-83
2022/12/27 17:16:53;;;;;;;30.88;17.38;;;;;;;;;;4996292;28;20389;-84
2022/12/27 17:19:52;;;;;;;32.15;20.33;;;;;;;;;;4996432;28;20046;-81
2022/12/27 17:22:38;;;;;;;38.22;24.00;;;;;;;;;;4992416;28;20462;-81
2022/12/27 17:25:43;;;;;;;25.00;16.05;;;;;;;;;;4991469;28;20046;-81
2022/12/27 17:28:36;;;;;;;29.23;16.93;;;;;;;;;;4996581;28;20465;-83
2022/12/27 17:31:33;;;;;;;25.42;14.60;;;;;;;;;;4996100;28;20046;-83
2022/12/27 17:34:32;;;;;;;39.88;19.33;;;;;;;;;;5015809;28;20050;-82
2022/12/27 17:37:30;;;;;;;43.33;21.85;;;;;;;;;;5007882;28;20046;-82
2022/12/27 17:40:31;;;;;;;65.70;29.73;;;;;;;;;;5016932;28;20046;-79
2022/12/27 17:47:44;;;;;;;62.63;30.10;;;;;;;;;;5007754;28;20038;-82
2022/12/27 17:50:30;;;;;;;54.97;26.25;;;;;;;;;;5002191;28;20385;-82
2022/12/27 17:59:36;;;;;;;55.47;27.27;;;;;;;;;;4989698;28;20047;-82
2022/12/27 18:02:31;;;;;;;59.13;29.58;;;;;;;;;;4976559;28;20042;-82
2022/12/27 18:05:17;;;;;;;64.20;27.33;;;;;;;;;;4991192;28;20034;-82
2022/12/27 18:08:06;;;;;;;45.70;26.90;;;;;;;;;;4998797;28;20046;-82
2022/12/27 18:10:51;;;;;;;37.80;21.73;;;;;;;;;;5001929;28;20046;-82
2022/12/27 18:13:43;;;;;;;44.90;24.23;;;;;;;;;;4991984;28;20046;-82
2022/12/27 18:16:38;;;;;;;54.25;24.38;;;;;;;;;;4992079;28;20050;-82
2022/12/27 18:19:29;;;;;;;40.17;20.75;;;;;;;;;;4984509;28;20035;-83